sensor_id;sensor_type;location;lat;lon;timestamp;pressure;altitude;pressure_sealevel;temperature;humidity
52591;BME280;38483;42.620;25.394;2024-03-29T00:01:26;96694.56;;;12.77;75.44
52591;BME280;38483;42.620;25.394;2024-03-29T00:03:53;96685.56;;;12.68;75.44
52591;BME280;38483;42.620;25.394;2024-03-29T00:06:20;96707.97;;;12.11;78.21
52591;BME280;38483;42.620;25.394;2024-03-29T00:08:46;96696.13;;;12.21;76.93
52591;BME280;38483;42.620;25.394;2024-03-29T00:11:12;96693.56;;;11.76;77.67
52591;BME280;38483;42.620;25.394;2024-03-29T00:13:38;96708.13;;;12.08;76.29
52591;BME280;38483;42.620;25.394;2024-03-29T00:16:06;96716.22;;;12.18;74.90
52591;BME280;38483;42.620;25.394;2024-03-29T00:18:32;96707.09;;;11.97;74.08
52591;BME280;38483;42.620;25.394;2024-03-29T00:20:58;96714.97;;;11.80;75.92
52591;BME280;38483;42.620;25.394;2024-03-29T00:23:24;96691.44;;;11.52;77.36
52591;BME280;38483;42.620;25.394;2024-03-29T00:25:51;96705.84;;;11.41;79.06
52591;BME280;38483;42.620;25.394;2024-03-29T00:28:17;96691.25;;;11.23;79.32
52591;BME280;38483;42.620;25.394;2024-03-29T00:30:44;96701.38;;;11.12;78.20
52591;BME280;38483;42.620;25.394;2024-03-29T00:33:10;96694.66;;;10.93;80.48
52591;BME280;38483;42.620;25.394;2024-03-29T00:35:37;96693.00;;;10.92;80.05
52591;BME280;38483;42.620;25.394;2024-03-29T00:38:03;96690.97;;;10.81;80.47
52591;BME280;38483;42.620;25.394;2024-03-29T00:40:29;96681.06;;;10.72;80.25
52591;BME280;38483;42.620;25.394;2024-03-29T00:42:55;96688.81;;;10.89;79.12
52591;BME280;38483;42.620;25.394;2024-03-29T00:45:21;96681.06;;;10.72;79.28
52591;BME280;38483;42.620;25.394;2024-03-29T00:47:47;96703.88;;;10.98;77.51
52591;BME280;38483;42.620;25.394;2024-03-29T00:50:13;96704.69;;;10.99;75.71
52591;BME280;38483;42.620;25.394;2024-03-29T00:52:39;96688.56;;;11.09;75.81
52591;BME280;38483;42.620;25.394;2024-03-29T00:55:05;96705.47;;;11.16;75.35
52591;BME280;38483;42.620;25.394;2024-03-29T00:57:31;96707.56;;;11.10;74.30
52591;BME280;38483;42.620;25.394;2024-03-29T00:59:57;96690.41;;;11.07;74.28
52591;BME280;38483;42.620;25.394;2024-03-29T01:02:23;96708.97;;;11.15;74.52
52591;BME280;38483;42.620;25.394;2024-03-29T01:04:50;96714.59;;;11.23;74.00
52591;BME280;38483;42.620;25.394;2024-03-29T01:07:16;96705.56;;;11.30;73.56
52591;BME280;38483;42.620;25.394;2024-03-29T01:09:43;96695.78;;;11.04;74.26
52591;BME280;38483;42.620;25.394;2024-03-29T01:12:10;96688.47;;;10.80;74.21
52591;BME280;38483;42.620;25.394;2024-03-29T01:14:37;96706.84;;;10.91;74.97
52591;BME280;38483;42.620;25.394;2024-03-29T01:17:03;96703.41;;;10.90;74.63
52591;BME280;38483;42.620;25.394;2024-03-29T01:19:30;96714.72;;;10.89;75.24
52591;BME280;38483;42.620;25.394;2024-03-29T01:21:56;96709.00;;;10.83;75.57
52591;BME280;38483;42.620;25.394;2024-03-29T01:24:22;96701.56;;;10.59;75.87
52591;BME280;38483;42.620;25.394;2024-03-29T01:26:49;96709.63;;;10.71;76.56
52591;BME280;38483;42.620;25.394;2024-03-29T01:29:15;96713.44;;;10.63;76.75
52591;BME280;38483;42.620;25.394;2024-03-29T01:31:41;96707.13;;;10.69;77.61
52591;BME280;38483;42.620;25.394;2024-03-29T01:34:07;96698.09;;;10.60;78.33
52591;BME280;38483;42.620;25.394;2024-03-29T01:36:33;96703.03;;;10.65;78.10
52591;BME280;38483;42.620;25.394;2024-03-29T01:38:59;96704.66;;;10.83;77.77
52591;BME280;38483;42.620;25.394;2024-03-29T01:41:26;96721.28;;;11.12;76.87
52591;BME280;38483;42.620;25.394;2024-03-29T01:43:53;96726.31;;;11.30;76.52
52591;BME280;38483;42.620;25.394;2024-03-29T01:46:21;96727.59;;;11.39;75.31
52591;BME280;38483;42.620;25.394;2024-03-29T01:48:49;96659.56;;;10.87;75.56
52591;BME280;38483;42.620;25.394;2024-03-29T01:51:16;96709.50;;;11.06;76.25
52591;BME280;38483;42.620;25.394;2024-03-29T01:53:44;96713.03;;;10.88;77.04
52591;BME280;38483;42.620;25.394;2024-03-29T01:56:10;96656.63;;;10.28;77.77
52591;BME280;38483;42.620;25.394;2024-03-29T01:58:38;96727.25;;;10.64;78.41
52591;BME280;38483;42.620;25.394;2024-03-29T02:01:25;96730.00;;;10.61;79.51
52591;BME280;38483;42.620;25.394;2024-03-29T02:04:45;96715.06;;;10.49;79.60
52591;BME280;38483;42.620;25.394;2024-03-29T02:07:46;96744.59;;;10.45;80.25
52591;BME280;38483;42.620;25.394;2024-03-29T02:10:14;96732.28;;;10.33;80.87
52591;BME280;38483;42.620;25.394;2024-03-29T02:12:41;96738.63;;;10.44;81.15
52591;BME280;38483;42.620;25.394;2024-03-29T02:15:07;96739.59;;;10.42;80.54
52591;BME280;38483;42.620;25.394;2024-03-29T02:17:33;96744.63;;;10.28;80.79
52591;BME280;38483;42.620;25.394;2024-03-29T02:19:59;96701.72;;;9.88;81.23
52591;BME280;38483;42.620;25.394;2024-03-29T02:22:27;96742.41;;;10.02;82.00
52591;BME280;38483;42.620;25.394;2024-03-29T02:24:54;96740.28;;;9.93;81.52
52591;BME280;38483;42.620;25.394;2024-03-29T02:27:21;96761.81;;;10.12;80.02
52591;BME280;38483;42.620;25.394;2024-03-29T02:29:47;96766.22;;;10.27;79.23
52591;BME280;38483;42.620;25.394;2024-03-29T02:32:13;96751.47;;;10.46;77.48
52591;BME280;38483;42.620;25.394;2024-03-29T02:34:39;96768.38;;;10.53;77.20
52591;BME280;38483;42.620;25.394;2024-03-29T02:37:05;96772.94;;;10.65;76.44
52591;BME280;38483;42.620;25.394;2024-03-29T02:39:32;96766.06;;;10.13;78.07
52591;BME280;38483;42.620;25.394;2024-03-29T02:41:58;96767.22;;;10.06;78.47
52591;BME280;38483;42.620;25.394;2024-03-29T02:44:24;96781.97;;;9.87;78.65
52591;BME280;38483;42.620;25.394;2024-03-29T02:46:50;96790.47;;;10.07;79.00
52591;BME280;38483;42.620;25.394;2024-03-29T02:49:16;96788.63;;;10.28;77.69
52591;BME280;38483;42.620;25.394;2024-03-29T02:51:42;96791.66;;;10.36;76.34
52591;BME280;38483;42.620;25.394;2024-03-29T02:54:08;96798.91;;;10.29;76.08
52591;BME280;38483;42.620;25.394;2024-03-29T02:56:34;96806.56;;;10.14;76.41
52591;BME280;38483;42.620;25.394;2024-03-29T02:59:00;96812.25;;;10.02;77.34
52591;BME280;38483;42.620;25.394;2024-03-29T03:01:26;96802.94;;;9.80;78.62
52591;BME280;38483;42.620;25.394;2024-03-29T03:03:52;96794.53;;;9.75;78.02
52591;BME280;38483;42.620;25.394;2024-03-29T03:06:18;96821.66;;;9.67;78.42
52591;BME280;38483;42.620;25.394;2024-03-29T03:08:44;96827.03;;;9.62;78.32
52591;BME280;38483;42.620;25.394;2024-03-29T03:11:28;96822.41;;;9.50;78.48
52591;BME280;38483;42.620;25.394;2024-03-29T03:13:54;96827.03;;;9.44;78.57
52591;BME280;38483;42.620;25.394;2024-03-29T03:16:20;96827.53;;;9.33;77.95
52591;BME280;38483;42.620;25.394;2024-03-29T03:18:47;96830.38;;;9.27;79.08
52591;BME280;38483;42.620;25.394;2024-03-29T03:21:13;96827.59;;;9.50;78.36
52591;BME280;38483;42.620;25.394;2024-03-29T03:23:39;96827.88;;;9.44;78.30
52591;BME280;38483;42.620;25.394;2024-03-29T03:26:05;96835.78;;;9.60;78.35
52591;BME280;38483;42.620;25.394;2024-03-29T03:28:31;96840.41;;;9.53;78.63
52591;BME280;38483;42.620;25.394;2024-03-29T03:30:57;96834.09;;;9.40;79.50
52591;BME280;38483;42.620;25.394;2024-03-29T03:33:23;96855.53;;;9.42;80.52
52591;BME280;38483;42.620;25.394;2024-03-29T03:35:49;96846.19;;;9.58;79.89
52591;BME280;38483;42.620;25.394;2024-03-29T03:38:16;96837.44;;;9.42;81.14
52591;BME280;38483;42.620;25.394;2024-03-29T03:40:42;96840.88;;;9.61;80.91
52591;BME280;38483;42.620;25.394;2024-03-29T03:43:09;96857.19;;;9.82;79.90
52591;BME280;38483;42.620;25.394;2024-03-29T03:45:39;96843.53;;;9.97;78.73
52591;BME280;38483;42.620;25.394;2024-03-29T03:48:10;96857.47;;;10.13;77.62
52591;BME280;38483;42.620;25.394;2024-03-29T03:50:37;96868.22;;;10.23;77.06
52591;BME280;38483;42.620;25.394;2024-03-29T03:53:04;96874.78;;;10.30;77.27
52591;BME280;38483;42.620;25.394;2024-03-29T03:55:30;96871.91;;;10.36;77.83
52591;BME280;38483;42.620;25.394;2024-03-29T03:57:56;96868.06;;;10.44;76.88
52591;BME280;38483;42.620;25.394;2024-03-29T04:00:22;96865.47;;;10.44;76.72
52591;BME280;38483;42.620;25.394;2024-03-29T04:02:49;96888.34;;;10.35;76.44
52591;BME280;38483;42.620;25.394;2024-03-29T04:05:19;96880.38;;;10.21;76.98
52591;BME280;38483;42.620;25.394;2024-03-29T04:07:46;96884.88;;;10.17;77.19
52591;BME280;38483;42.620;25.394;2024-03-29T04:10:12;96894.84;;;9.88;77.48
52591;BME280;38483;42.620;25.394;2024-03-29T04:12:39;96904.81;;;9.58;78.77
52591;BME280;38483;42.620;25.394;2024-03-29T04:15:05;96914.59;;;9.11;80.57
52591;BME280;38483;42.620;25.394;2024-03-29T04:17:32;96905.19;;;8.90;82.86
52591;BME280;38483;42.620;25.394;2024-03-29T04:19:59;96917.38;;;9.07;81.88
52591;BME280;38483;42.620;25.394;2024-03-29T04:22:29;96912.97;;;8.88;82.22
52591;BME280;38483;42.620;25.394;2024-03-29T04:24:55;96912.16;;;8.66;83.46
52591;BME280;38483;42.620;25.394;2024-03-29T04:27:21;96908.78;;;8.86;82.56
52591;BME280;38483;42.620;25.394;2024-03-29T04:29:50;96918.97;;;8.89;83.90
52591;BME280;38483;42.620;25.394;2024-03-29T04:32:17;96908.66;;;8.89;84.39
52591;BME280;38483;42.620;25.394;2024-03-29T04:34:46;96930.41;;;9.24;83.84
52591;BME280;38483;42.620;25.394;2024-03-29T04:37:12;96943.66;;;9.36;81.21
52591;BME280;38483;42.620;25.394;2024-03-29T04:39:38;96944.88;;;9.28;80.34
52591;BME280;38483;42.620;25.394;2024-03-29T04:42:04;96957.53;;;9.14;80.29
52591;BME280;38483;42.620;25.394;2024-03-29T04:44:30;96952.00;;;9.02;80.14
52591;BME280;38483;42.620;25.394;2024-03-29T04:46:56;96963.16;;;9.03;80.15
52591;BME280;38483;42.620;25.394;2024-03-29T04:49:23;96962.53;;;9.18;79.43
52591;BME280;38483;42.620;25.394;2024-03-29T04:51:56;96964.41;;;9.35;78.55
52591;BME280;38483;42.620;25.394;2024-03-29T04:54:23;96947.72;;;9.42;77.67
52591;BME280;38483;42.620;25.394;2024-03-29T04:56:49;96906.13;;;9.28;77.01
52591;BME280;38483;42.620;25.394;2024-03-29T04:59:15;96940.19;;;9.76;76.12
52591;BME280;38483;42.620;25.394;2024-03-29T05:01:43;96947.06;;;9.96;74.50
52591;BME280;38483;42.620;25.394;2024-03-29T05:04:10;96961.47;;;10.21;73.87
52591;BME280;38483;42.620;25.394;2024-03-29T05:06:36;96965.56;;;10.62;72.87
52591;BME280;38483;42.620;25.394;2024-03-29T05:09:02;96954.69;;;10.90;71.93
52591;BME280;38483;42.620;25.394;2024-03-29T05:11:28;96959.69;;;11.12;71.10
52591;BME280;38483;42.620;25.394;2024-03-29T05:13:54;96964.91;;;11.29;70.92
52591;BME280;38483;42.620;25.394;2024-03-29T05:16:20;96969.69;;;11.54;70.39
52591;BME280;38483;42.620;25.394;2024-03-29T05:18:47;96967.69;;;11.76;69.55
52591;BME280;38483;42.620;25.394;2024-03-29T05:21:13;96973.84;;;11.90;69.17
52591;BME280;38483;42.620;25.394;2024-03-29T05:23:39;96967.50;;;11.96;69.18
52591;BME280;38483;42.620;25.394;2024-03-29T05:26:05;96979.81;;;12.08;68.38
52591;BME280;38483;42.620;25.394;2024-03-29T05:28:32;96976.00;;;12.15;68.53
52591;BME280;38483;42.620;25.394;2024-03-29T05:31:11;96969.50;;;12.23;67.92
52591;BME280;38483;42.620;25.394;2024-03-29T05:33:37;96986.34;;;12.32;67.19
52591;BME280;38483;42.620;25.394;2024-03-29T05:36:04;96977.94;;;12.43;67.42
52591;BME280;38483;42.620;25.394;2024-03-29T05:38:32;96971.84;;;12.28;67.49
52591;BME280;38483;42.620;25.394;2024-03-29T05:40:58;96956.03;;;12.00;68.84
52591;BME280;38483;42.620;25.394;2024-03-29T05:43:24;96983.47;;;12.21;68.71
52591;BME280;38483;42.620;25.394;2024-03-29T05:45:52;96989.09;;;12.29;68.44
52591;BME280;38483;42.620;25.394;2024-03-29T05:48:18;96997.38;;;12.51;67.96
52591;BME280;38483;42.620;25.394;2024-03-29T05:50:47;96976.19;;;12.43;68.57
52591;BME280;38483;42.620;25.394;2024-03-29T05:53:13;96906.81;;;12.14;67.13
52591;BME280;38483;42.620;25.394;2024-03-29T05:55:39;96999.50;;;12.76;67.26
52591;BME280;38483;42.620;25.394;2024-03-29T05:58:05;97001.69;;;12.83;67.36
52591;BME280;38483;42.620;25.394;2024-03-29T06:00:34;96989.41;;;13.01;67.46
52591;BME280;38483;42.620;25.394;2024-03-29T06:03:01;97001.91;;;13.26;66.66
52591;BME280;38483;42.620;25.394;2024-03-29T06:05:30;97017.53;;;13.55;65.48
52591;BME280;38483;42.620;25.394;2024-03-29T06:07:56;97014.78;;;13.43;66.08
52591;BME280;38483;42.620;25.394;2024-03-29T06:10:22;97005.75;;;13.34;66.86
52591;BME280;38483;42.620;25.394;2024-03-29T06:12:48;97012.00;;;13.46;66.12
52591;BME280;38483;42.620;25.394;2024-03-29T06:15:15;97005.78;;;13.48;66.75
52591;BME280;38483;42.620;25.394;2024-03-29T06:17:59;97000.44;;;13.36;67.96
52591;BME280;38483;42.620;25.394;2024-03-29T06:20:25;97006.50;;;13.36;68.00
52591;BME280;38483;42.620;25.394;2024-03-29T06:22:51;96991.16;;;13.32;68.13
52591;BME280;38483;42.620;25.394;2024-03-29T06:25:17;97019.44;;;13.52;67.29
52591;BME280;38483;42.620;25.394;2024-03-29T06:27:43;97014.50;;;13.91;66.69
52591;BME280;38483;42.620;25.394;2024-03-29T06:30:33;97019.31;;;14.41;65.61
52591;BME280;38483;42.620;25.394;2024-03-29T06:33:55;97025.81;;;14.76;63.10
52591;BME280;38483;42.620;25.394;2024-03-29T06:36:55;97008.69;;;14.99;62.19
52591;BME280;38483;42.620;25.394;2024-03-29T06:39:21;97038.34;;;14.98;62.58
52591;BME280;38483;42.620;25.394;2024-03-29T06:41:47;97020.03;;;15.12;62.47
52591;BME280;38483;42.620;25.394;2024-03-29T06:44:13;97019.13;;;15.25;61.82
52591;BME280;38483;42.620;25.394;2024-03-29T06:46:39;97036.38;;;15.55;61.30
52591;BME280;38483;42.620;25.394;2024-03-29T06:49:05;97047.19;;;15.75;60.24
52591;BME280;38483;42.620;25.394;2024-03-29T06:51:31;97045.88;;;15.82;60.33
52591;BME280;38483;42.620;25.394;2024-03-29T06:53:57;97051.50;;;16.01;59.34
52591;BME280;38483;42.620;25.394;2024-03-29T06:56:23;97013.69;;;15.94;58.86
52591;BME280;38483;42.620;25.394;2024-03-29T06:58:49;97053.84;;;16.44;58.07
52591;BME280;38483;42.620;25.394;2024-03-29T07:01:16;97005.44;;;16.38;57.29
52591;BME280;38483;42.620;25.394;2024-03-29T07:03:42;97050.25;;;16.82;56.67
52591;BME280;38483;42.620;25.394;2024-03-29T07:06:08;97055.88;;;17.01;55.68
52591;BME280;38483;42.620;25.394;2024-03-29T07:08:34;97062.31;;;17.08;55.59
52591;BME280;38483;42.620;25.394;2024-03-29T07:11:01;97057.03;;;17.21;54.98
52591;BME280;38483;42.620;25.394;2024-03-29T07:13:29;97061.41;;;17.33;54.68
52591;BME280;38483;42.620;25.394;2024-03-29T07:15:59;97055.47;;;17.55;54.34
52591;BME280;38483;42.620;25.394;2024-03-29T07:18:25;97066.50;;;17.71;53.97
52591;BME280;38483;42.620;25.394;2024-03-29T07:20:52;97050.50;;;17.86;52.92
52591;BME280;38483;42.620;25.394;2024-03-29T07:23:18;97058.06;;;18.13;51.75
52591;BME280;38483;42.620;25.394;2024-03-29T07:25:45;97056.34;;;18.36;49.17
52591;BME280;38483;42.620;25.394;2024-03-29T07:28:12;97056.13;;;18.50;49.34
52591;BME280;38483;42.620;25.394;2024-03-29T07:30:41;97058.88;;;18.71;48.06
52591;BME280;38483;42.620;25.394;2024-03-29T07:33:07;97053.53;;;18.83;48.53
52591;BME280;38483;42.620;25.394;2024-03-29T07:35:35;97062.06;;;18.96;49.32
52591;BME280;38483;42.620;25.394;2024-03-29T07:38:01;97068.88;;;19.10;48.80
52591;BME280;38483;42.620;25.394;2024-03-29T07:40:27;97068.72;;;19.33;48.24
52591;BME280;38483;42.620;25.394;2024-03-29T07:42:53;97074.81;;;19.45;47.53
52591;BME280;38483;42.620;25.394;2024-03-29T07:45:19;97075.88;;;19.54;45.86
52591;BME280;38483;42.620;25.394;2024-03-29T07:47:45;97078.94;;;19.59;46.00
52591;BME280;38483;42.620;25.394;2024-03-29T07:50:15;97065.78;;;19.70;46.23
52591;BME280;38483;42.620;25.394;2024-03-29T07:52:44;97063.59;;;19.75;45.81
52591;BME280;38483;42.620;25.394;2024-03-29T07:55:10;97076.44;;;19.89;44.48
52591;BME280;38483;42.620;25.394;2024-03-29T07:57:36;97079.84;;;20.00;44.34
52591;BME280;38483;42.620;25.394;2024-03-29T08:00:04;97084.44;;;20.19;42.72
52591;BME280;38483;42.620;25.394;2024-03-29T08:02:32;97105.22;;;20.22;43.45
52591;BME280;38483;42.620;25.394;2024-03-29T08:04:58;97112.78;;;20.36;43.42
52591;BME280;38483;42.620;25.394;2024-03-29T08:07:24;97102.72;;;20.41;42.73
52591;BME280;38483;42.620;25.394;2024-03-29T08:09:50;97078.91;;;20.43;42.60
52591;BME280;38483;42.620;25.394;2024-03-29T08:12:17;97097.41;;;20.52;41.33
52591;BME280;38483;42.620;25.394;2024-03-29T08:14:43;97095.00;;;20.70;37.42
52591;BME280;38483;42.620;25.394;2024-03-29T08:17:09;97099.38;;;20.90;37.33
52591;BME280;38483;42.620;25.394;2024-03-29T08:19:36;97100.22;;;20.90;36.82
52591;BME280;38483;42.620;25.394;2024-03-29T08:22:02;97094.25;;;20.88;36.68
52591;BME280;38483;42.620;25.394;2024-03-29T08:24:28;97041.09;;;20.64;36.76
52591;BME280;38483;42.620;25.394;2024-03-29T08:26:54;97114.25;;;21.00;37.05
52591;BME280;38483;42.620;25.394;2024-03-29T08:29:43;97104.06;;;21.07;36.15
52591;BME280;38483;42.620;25.394;2024-03-29T08:33:03;97095.72;;;21.02;35.07
52591;BME280;38483;42.620;25.394;2024-03-29T08:35:38;97103.72;;;21.00;35.90
52591;BME280;38483;42.620;25.394;2024-03-29T08:38:09;97104.53;;;21.12;35.67
52591;BME280;38483;42.620;25.394;2024-03-29T08:40:35;97094.16;;;21.20;35.78
52591;BME280;38483;42.620;25.394;2024-03-29T08:43:04;97083.91;;;21.27;36.01
52591;BME280;38483;42.620;25.394;2024-03-29T08:45:30;97102.78;;;21.41;35.61
52591;BME280;38483;42.620;25.394;2024-03-29T08:47:56;97082.38;;;21.24;35.40
52591;BME280;38483;42.620;25.394;2024-03-29T08:50:22;97096.69;;;21.41;35.19
52591;BME280;38483;42.620;25.394;2024-03-29T08:52:48;97090.84;;;21.37;34.94
52591;BME280;38483;42.620;25.394;2024-03-29T08:55:14;97104.06;;;21.47;35.03
52591;BME280;38483;42.620;25.394;2024-03-29T08:57:40;97099.91;;;21.44;35.26
52591;BME280;38483;42.620;25.394;2024-03-29T09:00:08;97095.06;;;21.49;34.65
52591;BME280;38483;42.620;25.394;2024-03-29T09:02:34;97087.00;;;21.51;34.79
52591;BME280;38483;42.620;25.394;2024-03-29T09:05:00;97094.47;;;21.46;35.11
52591;BME280;38483;42.620;25.394;2024-03-29T09:07:27;97098.66;;;21.58;35.38
52591;BME280;38483;42.620;25.394;2024-03-29T09:09:53;97103.94;;;21.58;34.47
52591;BME280;38483;42.620;25.394;2024-03-29T09:12:19;97085.78;;;21.55;35.56
52591;BME280;38483;42.620;25.394;2024-03-29T09:14:45;97106.31;;;21.61;34.28
52591;BME280;38483;42.620;25.394;2024-03-29T09:17:12;97097.84;;;21.57;34.66
52591;BME280;38483;42.620;25.394;2024-03-29T09:19:38;97096.88;;;21.68;34.58
52591;BME280;38483;42.620;25.394;2024-03-29T09:22:04;97104.44;;;21.82;34.02
52591;BME280;38483;42.620;25.394;2024-03-29T09:24:31;97094.16;;;21.88;34.07
52591;BME280;38483;42.620;25.394;2024-03-29T09:27:00;97070.69;;;21.85;33.76
52591;BME280;38483;42.620;25.394;2024-03-29T09:29:27;97100.41;;;21.97;33.22
52591;BME280;38483;42.620;25.394;2024-03-29T09:31:53;97097.66;;;21.99;33.92
52591;BME280;38483;42.620;25.394;2024-03-29T09:34:19;97081.53;;;22.11;33.28
52591;BME280;38483;42.620;25.394;2024-03-29T09:36:45;97095.94;;;22.07;33.15
52591;BME280;38483;42.620;25.394;2024-03-29T09:39:11;97035.16;;;21.90;33.25
52591;BME280;38483;42.620;25.394;2024-03-29T09:41:37;97098.06;;;22.13;33.10
52591;BME280;38483;42.620;25.394;2024-03-29T09:44:05;97090.53;;;22.18;33.34
52591;BME280;38483;42.620;25.394;2024-03-29T09:46:33;97083.88;;;22.14;32.97
52591;BME280;38483;42.620;25.394;2024-03-29T09:49:01;97079.72;;;22.21;32.37
52591;BME280;38483;42.620;25.394;2024-03-29T09:51:29;97064.53;;;22.42;33.09
52591;BME280;38483;42.620;25.394;2024-03-29T09:53:57;97063.22;;;22.75;31.95
52591;BME280;38483;42.620;25.394;2024-03-29T09:56:25;97072.50;;;22.89;31.27
52591;BME280;38483;42.620;25.394;2024-03-29T09:58:52;97026.88;;;22.59;31.35
52591;BME280;38483;42.620;25.394;2024-03-29T10:01:19;97058.88;;;22.84;31.56
52591;BME280;38483;42.620;25.394;2024-03-29T10:03:48;97052.72;;;22.93;31.18
52591;BME280;38483;42.620;25.394;2024-03-29T10:06:15;97036.47;;;22.88;31.34
52591;BME280;38483;42.620;25.394;2024-03-29T10:08:44;97039.94;;;22.98;30.87
52591;BME280;38483;42.620;25.394;2024-03-29T10:11:11;97051.28;;;23.08;30.92
52591;BME280;38483;42.620;25.394;2024-03-29T10:13:37;97046.00;;;23.08;30.82
52591;BME280;38483;42.620;25.394;2024-03-29T10:16:04;96984.34;;;22.90;31.22
52591;BME280;38483;42.620;25.394;2024-03-29T10:18:31;97030.28;;;23.33;31.25
52591;BME280;38483;42.620;25.394;2024-03-29T10:21:05;97043.31;;;23.44;30.50
52591;BME280;38483;42.620;25.394;2024-03-29T10:23:32;97036.50;;;23.42;30.71
52591;BME280;38483;42.620;25.394;2024-03-29T10:25:58;97041.50;;;23.45;30.39
52591;BME280;38483;42.620;25.394;2024-03-29T10:28:31;97037.66;;;23.30;30.98
52591;BME280;38483;42.620;25.394;2024-03-29T10:31:00;97036.91;;;23.47;31.38
52591;BME280;38483;42.620;25.394;2024-03-29T10:33:30;97033.25;;;23.48;30.69
52591;BME280;38483;42.620;25.394;2024-03-29T10:36:01;97040.06;;;23.51;31.53
52591;BME280;38483;42.620;25.394;2024-03-29T10:38:30;97035.94;;;23.66;31.56
52591;BME280;38483;42.620;25.394;2024-03-29T10:40:57;97047.94;;;23.78;30.52
52591;BME280;38483;42.620;25.394;2024-03-29T10:43:24;97041.06;;;23.67;30.22
52591;BME280;38483;42.620;25.394;2024-03-29T10:45:50;97039.31;;;23.76;30.37
52591;BME280;38483;42.620;25.394;2024-03-29T10:48:20;97030.69;;;23.56;31.41
52591;BME280;38483;42.620;25.394;2024-03-29T10:50:48;97030.09;;;23.62;30.36
52591;BME280;38483;42.620;25.394;2024-03-29T10:53:17;97025.47;;;23.64;31.00
52591;BME280;38483;42.620;25.394;2024-03-29T10:55:43;97015.44;;;23.68;30.61
52591;BME280;38483;42.620;25.394;2024-03-29T10:58:12;97028.94;;;23.82;30.99
52591;BME280;38483;42.620;25.394;2024-03-29T11:00:47;97026.59;;;23.97;30.85
52591;BME280;38483;42.620;25.394;2024-03-29T11:03:40;97028.59;;;24.12;30.63
52591;BME280;38483;42.620;25.394;2024-03-29T11:06:06;97026.50;;;24.24;30.04
52591;BME280;38483;42.620;25.394;2024-03-29T11:08:34;97030.50;;;24.28;30.36
52591;BME280;38483;42.620;25.394;2024-03-29T11:11:05;97029.69;;;24.28;30.40
52591;BME280;38483;42.620;25.394;2024-03-29T11:13:46;97001.78;;;24.15;29.90
52591;BME280;38483;42.620;25.394;2024-03-29T11:16:14;97015.13;;;24.06;30.63
52591;BME280;38483;42.620;25.394;2024-03-29T11:18:42;97005.59;;;24.13;30.66
52591;BME280;38483;42.620;25.394;2024-03-29T11:21:09;97010.16;;;24.29;30.44
52591;BME280;38483;42.620;25.394;2024-03-29T11:23:37;97007.25;;;23.96;30.46
52591;BME280;38483;42.620;25.394;2024-03-29T11:26:03;97015.88;;;23.98;29.99
52591;BME280;38483;42.620;25.394;2024-03-29T11:31:02;97016.69;;;23.99;30.59
52591;BME280;38483;42.620;25.394;2024-03-29T11:36:13;97013.28;;;24.24;30.19
52591;BME280;38483;42.620;25.394;2024-03-29T11:38:42;97010.47;;;24.25;29.96
52591;BME280;38483;42.620;25.394;2024-03-29T11:41:12;97011.69;;;24.13;29.81
52591;BME280;38483;42.620;25.394;2024-03-29T11:43:38;96996.00;;;23.94;30.77
52591;BME280;38483;42.620;25.394;2024-03-29T11:46:07;96981.09;;;23.93;29.93
52591;BME280;38483;42.620;25.394;2024-03-29T11:48:34;96986.63;;;23.82;30.35
52591;BME280;38483;42.620;25.394;2024-03-29T11:51:03;97009.69;;;23.72;30.48
52591;BME280;38483;42.620;25.394;2024-03-29T11:53:30;97006.41;;;23.78;30.90
52591;BME280;38483;42.620;25.394;2024-03-29T11:56:01;96993.88;;;23.80;30.81
52591;BME280;38483;42.620;25.394;2024-03-29T11:58:28;96992.00;;;23.90;31.16
52591;BME280;38483;42.620;25.394;2024-03-29T12:00:56;96989.75;;;23.78;31.57
52591;BME280;38483;42.620;25.394;2024-03-29T12:03:25;96987.00;;;23.87;31.42
52591;BME280;38483;42.620;25.394;2024-03-29T12:05:52;96995.59;;;24.24;31.07
52591;BME280;38483;42.620;25.394;2024-03-29T12:08:21;96983.13;;;24.43;30.88
52591;BME280;38483;42.620;25.394;2024-03-29T12:10:48;96966.16;;;24.28;30.92
52591;BME280;38483;42.620;25.394;2024-03-29T12:13:16;96975.81;;;24.37;31.37
52591;BME280;38483;42.620;25.394;2024-03-29T12:15:42;96983.03;;;24.52;31.09
52591;BME280;38483;42.620;25.394;2024-03-29T12:18:09;96998.69;;;24.46;31.00
52591;BME280;38483;42.620;25.394;2024-03-29T12:20:35;96991.63;;;24.29;30.84
52591;BME280;38483;42.620;25.394;2024-03-29T12:23:09;96972.94;;;24.30;31.16
52591;BME280;38483;42.620;25.394;2024-03-29T12:25:37;96984.53;;;24.29;31.07
52591;BME280;38483;42.620;25.394;2024-03-29T12:28:03;96986.06;;;24.14;31.05
52591;BME280;38483;42.620;25.394;2024-03-29T12:30:30;96982.06;;;24.28;31.47
52591;BME280;38483;42.620;25.394;2024-03-29T12:33:03;96985.72;;;24.35;30.98
52591;BME280;38483;42.620;25.394;2024-03-29T12:35:30;96984.88;;;24.34;30.45
52591;BME280;38483;42.620;25.394;2024-03-29T12:37:59;96987.81;;;24.23;30.62
52591;BME280;38483;42.620;25.394;2024-03-29T12:40:28;96993.44;;;24.28;30.51
52591;BME280;38483;42.620;25.394;2024-03-29T12:42:56;96975.25;;;24.25;30.69
52591;BME280;38483;42.620;25.394;2024-03-29T12:45:24;96981.63;;;24.14;30.46
52591;BME280;38483;42.620;25.394;2024-03-29T12:47:50;96977.31;;;24.39;29.81
52591;BME280;38483;42.620;25.394;2024-03-29T12:52:49;96977.16;;;24.41;30.42
52591;BME280;38483;42.620;25.394;2024-03-29T12:55:15;96962.56;;;24.37;30.07
52591;BME280;38483;42.620;25.394;2024-03-29T12:58:04;96977.59;;;24.36;30.06
52591;BME280;38483;42.620;25.394;2024-03-29T13:01:05;96976.16;;;24.42;30.64
52591;BME280;38483;42.620;25.394;2024-03-29T13:03:32;96971.09;;;24.22;31.10